Time;durP1;ratioP1;P1;durP2;ratioP2;P2;SDS_P1;SDS_P2;PMS_P1;PMS_P2;Temp;Humidity;BMP_temperature;BMP_pressure;BME280_temperature;BME280_humidity;BME280_pressure;Samples;Min_cycle;Max_cycle;Signal;HPM_P1;HPM_P2
2024/02/16 00:00:24;;;;;;;14.70;8.23;;;4.30;99.90;;;;;;6214638;23;20082;-78
2024/02/16 00:02:50;;;;;;;13.47;7.20;;;4.30;99.90;;;;;;6214688;23;20004;-78
2024/02/16 00:05:15;;;;;;;15.67;7.57;;;4.20;99.90;;;;;;6214080;23;20011;-77
2024/02/16 00:07:41;;;;;;;12.83;7.03;;;4.20;99.90;;;;;;6214772;23;20079;-78
2024/02/16 00:10:08;;;;;;;14.73;6.67;;;4.10;99.90;;;;;;6213746;23;20008;-78
2024/02/16 00:12:34;;;;;;;12.17;6.77;;;4.00;99.90;;;;;;6214425;23;20001;-78
2024/02/16 00:15:01;;;;;;;12.80;6.83;;;4.00;99.90;;;;;;6214165;23;20011;-78
2024/02/16 00:17:26;;;;;;;14.10;7.73;;;4.00;99.90;;;;;;6214022;23;20025;-78
2024/02/16 00:19:53;;;;;;;13.97;8.17;;;4.00;99.90;;;;;;6214379;23;20005;-78
2024/02/16 00:22:19;;;;;;;13.13;7.07;;;3.90;99.90;;;;;;6214679;23;20011;-77
2024/02/16 00:24:44;;;;;;;16.13;7.63;;;3.90;99.90;;;;;;6213990;23;20091;-77
2024/02/16 00:27:10;;;;;;;14.20;6.93;;;3.90;99.90;;;;;;6214308;23;20055;-77
2024/02/16 00:29:38;;;;;;;10.70;7.13;;;3.80;99.90;;;;;;6214042;23;20075;-78
2024/02/16 00:32:04;;;;;;;12.13;6.97;;;3.80;99.90;;;;;;6214577;23;20001;-77
2024/02/16 00:34:29;;;;;;;14.93;7.00;;;3.80;99.90;;;;;;6213555;23;20030;-77
2024/02/16 00:36:55;;;;;;;11.93;6.90;;;3.80;99.90;;;;;;6214088;23;20020;-78
2024/02/16 00:39:21;;;;;;;13.93;7.60;;;3.80;99.90;;;;;;6214298;23;20008;-78
2024/02/16 00:41:47;;;;;;;13.00;7.50;;;3.80;99.90;;;;;;6213935;23;20005;-78
2024/02/16 00:44:12;;;;;;;11.97;7.03;;;3.80;99.90;;;;;;6213865;23;20407;-78
2024/02/16 00:46:38;;;;;;;16.07;7.17;;;3.80;99.90;;;;;;6214571;23;20031;-77
2024/02/16 00:49:04;;;;;;;13.80;6.37;;;3.80;99.90;;;;;;6214116;23;20008;-77
2024/02/16 00:51:29;;;;;;;14.27;7.17;;;3.80;99.90;;;;;;6214300;23;20023;-77
2024/02/16 00:53:55;;;;;;;17.30;6.50;;;3.80;99.90;;;;;;6213385;23;20001;-77
2024/02/16 00:56:21;;;;;;;13.73;6.53;;;3.80;99.90;;;;;;6213780;23;20012;-78
2024/02/16 00:58:46;;;;;;;11.87;6.57;;;3.80;99.90;;;;;;6213542;23;20001;-77
2024/02/16 01:01:12;;;;;;;12.80;6.67;;;3.80;99.90;;;;;;6213514;23;20435;-77
2024/02/16 01:03:40;;;;;;;12.07;6.90;;;3.80;99.90;;;;;;6213761;23;20071;-77
2024/02/16 01:06:08;;;;;;;11.10;7.43;;;3.80;99.90;;;;;;6213294;23;20030;-77
2024/02/16 01:08:34;;;;;;;12.73;6.77;;;3.90;99.90;;;;;;6214071;23;19997;-77
2024/02/16 01:11:00;;;;;;;16.13;7.77;;;3.90;99.90;;;;;;6213512;23;20007;-77
2024/02/16 01:13:25;;;;;;;18.23;7.13;;;3.90;99.90;;;;;;6214015;23;20445;-77
2024/02/16 01:15:52;;;;;;;14.80;6.30;;;3.90;99.90;;;;;;6213307;23;20331;-77
2024/02/16 01:18:17;;;;;;;12.50;6.33;;;4.00;99.90;;;;;;6213520;23;20011;-78
2024/02/16 01:20:43;;;;;;;12.57;7.13;;;4.00;99.90;;;;;;6214000;23;20087;-77
2024/02/16 01:23:08;;;;;;;13.33;7.17;;;4.00;99.90;;;;;;6213933;23;20373;-78
2024/02/16 01:25:34;;;;;;;10.27;6.80;;;3.90;99.90;;;;;;6213270;23;20007;-77
2024/02/16 01:27:59;;;;;;;10.67;6.07;;;4.00;99.90;;;;;;6213939;23;20007;-77
2024/02/16 01:30:25;;;;;;;9.33;5.53;;;3.90;99.90;;;;;;6213894;23;20079;-78
2024/02/16 01:32:51;;;;;;;10.03;6.27;;;4.00;99.90;;;;;;6213997;23;20043;-77
2024/02/16 01:35:16;;;;;;;8.77;6.10;;;4.00;99.90;;;;;;6212877;23;20032;-77
2024/02/16 01:37:42;;;;;;;11.80;6.17;;;4.00;99.90;;;;;;6213208;23;20058;-78
2024/02/16 01:40:13;;;;;;;11.17;6.03;;;4.00;99.90;;;;;;6213746;23;20028;-77
2024/02/16 01:42:41;;;;;;;8.87;5.93;;;4.00;99.90;;;;;;6213522;23;20005;-78
2024/02/16 01:45:09;;;;;;;12.77;5.90;;;4.10;99.90;;;;;;6213207;23;20001;-78
2024/02/16 01:47:35;;;;;;;9.20;5.50;;;4.10;99.90;;;;;;6213890;23;20001;-77
2024/02/16 01:50:02;;;;;;;13.03;5.87;;;4.00;99.90;;;;;;6213553;23;20005;-77
2024/02/16 01:52:28;;;;;;;8.43;5.33;;;4.00;99.90;;;;;;6212984;23;19997;-77
2024/02/16 01:54:54;;;;;;;11.40;6.30;;;4.00;99.90;;;;;;6212898;23;20339;-78
2024/02/16 01:57:19;;;;;;;7.67;5.93;;;4.00;99.90;;;;;;6213699;23;20009;-77
2024/02/16 01:59:45;;;;;;;9.50;6.13;;;4.00;99.90;;;;;;6213508;23;20366;-77
2024/02/16 02:02:11;;;;;;;8.53;6.07;;;4.00;99.90;;;;;;6213699;23;20022;-77
2024/02/16 02:04:37;;;;;;;10.80;5.57;;;4.00;99.90;;;;;;6212675;23;20088;-77
2024/02/16 02:07:11;;;;;;;7.70;5.27;;;4.00;99.90;;;;;;6213477;23;20051;-77
2024/02/16 02:09:37;;;;;;;11.02;5.80;;;3.90;99.90;;;;;;6213439;23;20011;-78
2024/02/16 02:12:03;;;;;;;11.53;5.37;;;3.90;99.90;;;;;;6213173;23;20120;-77
2024/02/16 02:14:29;;;;;;;11.00;5.43;;;3.90;99.90;;;;;;6212362;23;20004;-77
2024/02/16 02:16:54;;;;;;;11.10;5.53;;;3.90;99.90;;;;;;6213439;23;20013;-78
2024/02/16 02:19:20;;;;;;;9.50;5.70;;;3.90;99.90;;;;;;6212952;23;20058;-78
2024/02/16 02:21:45;;;;;;;9.37;6.20;;;3.90;99.90;;;;;;6213395;23;20007;-77
2024/02/16 02:24:11;;;;;;;8.70;4.90;;;3.90;99.90;;;;;;6213032;23;20011;-78
2024/02/16 02:26:37;;;;;;;10.07;5.17;;;3.90;99.90;;;;;;6213558;23;20004;-78
2024/02/16 02:29:03;;;;;;;8.60;5.00;;;3.90;99.90;;;;;;6212898;23;20080;-77
2024/02/16 02:31:29;;;;;;;9.20;5.13;;;3.80;99.90;;;;;;6213893;23;20024;-78
2024/02/16 02:33:54;;;;;;;11.73;5.43;;;3.80;99.90;;;;;;6214784;23;20012;-77
2024/02/16 02:36:20;;;;;;;9.57;5.07;;;3.80;99.90;;;;;;6215452;23;20009;-77
2024/02/16 02:38:45;;;;;;;7.97;5.33;;;3.80;99.90;;;;;;6215501;23;20419;-78
2024/02/16 02:41:11;;;;;;;9.97;4.93;;;3.80;99.90;;;;;;6214829;23;20004;-77
2024/02/16 02:43:36;;;;;;;7.63;4.80;;;3.90;99.90;;;;;;6214675;23;20012;-78
2024/02/16 02:46:02;;;;;;;11.10;5.23;;;3.90;99.90;;;;;;6215136;23;20055;-77
2024/02/16 02:48:27;;;;;;;7.73;4.63;;;3.90;99.90;;;;;;6215363;23;20423;-78
2024/02/16 02:50:53;;;;;;;8.37;5.40;;;3.90;99.90;;;;;;6215696;23;20005;-78
2024/02/16 02:53:18;;;;;;;10.93;5.70;;;3.90;99.90;;;;;;6214657;23;20331;-77
2024/02/16 02:55:44;;;;;;;8.30;4.97;;;3.90;99.90;;;;;;6214569;23;20335;-77
2024/02/16 02:58:09;;;;;;;8.17;4.83;;;3.90;99.90;;;;;;6215555;23;20425;-77
2024/02/16 03:00:35;;;;;;;9.17;4.83;;;3.90;99.90;;;;;;6215414;23;20047;-77
2024/02/16 03:03:01;;;;;;;10.20;5.20;;;3.90;99.90;;;;;;6215516;23;20032;-77
2024/02/16 03:05:27;;;;;;;8.33;5.83;;;3.90;99.90;;;;;;6214074;23;20032;-78
2024/02/16 03:07:52;;;;;;;10.23;5.20;;;4.00;99.90;;;;;;6214925;23;20005;-77
2024/02/16 03:10:21;;;;;;;11.53;6.47;;;4.00;99.90;;;;;;6215133;23;20024;-77
2024/02/16 03:12:49;;;;;;;7.60;5.60;;;4.00;99.90;;;;;;6214804;23;20419;-78
2024/02/16 03:15:15;;;;;;;6.30;4.90;;;4.00;99.90;;;;;;6214561;23;20043;-77
2024/02/16 03:17:41;;;;;;;10.03;5.00;;;4.00;99.90;;;;;;6213828;23;20502;-78
2024/02/16 03:20:07;;;;;;;10.77;5.73;;;4.10;99.90;;;;;;6214924;23;20004;-77
2024/02/16 03:22:33;;;;;;;7.73;4.50;;;4.10;99.90;;;;;;6214868;23;20570;-78
2024/02/16 03:24:59;;;;;;;7.27;5.00;;;4.10;99.90;;;;;;6214271;23;20015;-77
2024/02/16 03:27:24;;;;;;;10.97;5.07;;;4.10;99.90;;;;;;6214758;23;20001;-77
2024/02/16 03:29:50;;;;;;;8.90;5.20;;;4.10;99.90;;;;;;6215268;23;20000;-78
2024/02/16 03:32:15;;;;;;;8.43;5.07;;;4.10;99.90;;;;;;6215280;23;20004;-77
2024/02/16 03:34:41;;;;;;;9.90;5.30;;;4.10;99.90;;;;;;6213878;23;20000;-77
2024/02/16 03:37:06;;;;;;;8.40;5.50;;;4.20;99.90;;;;;;6215001;23;20055;-77
2024/02/16 03:39:32;;;;;;;7.83;5.47;;;4.20;99.90;;;;;;6215086;23;20000;-77
2024/02/16 03:41:57;;;;;;;8.60;5.70;;;4.20;99.90;;;;;;6214682;23;20004;-77
2024/02/16 03:44:23;;;;;;;8.07;5.40;;;4.20;99.90;;;;;;6214205;23;20008;-78
2024/02/16 03:46:48;;;;;;;8.67;5.90;;;4.20;99.90;;;;;;6215014;23;20005;-78
2024/02/16 03:49:14;;;;;;;13.90;5.63;;;4.30;99.90;;;;;;6214417;23;20004;-78
2024/02/16 03:51:39;;;;;;;9.43;5.57;;;4.30;99.90;;;;;;6214612;23;20001;-78
2024/02/16 03:54:05;;;;;;;8.40;5.20;;;4.30;99.90;;;;;;6214479;23;20005;-77
2024/02/16 03:56:31;;;;;;;9.43;5.23;;;4.20;99.90;;;;;;6214831;23;20009;-77
2024/02/16 03:58:56;;;;;;;9.17;4.53;;;4.20;99.90;;;;;;6214394;23;20004;-78
2024/02/16 04:01:22;;;;;;;7.53;4.37;;;4.10;99.90;;;;;;6214839;23;19997;-78
2024/02/16 04:03:47;;;;;;;7.57;4.50;;;4.10;99.90;;;;;;6214152;23;19993;-78
2024/02/16 04:06:13;;;;;;;10.47;5.00;;;4.10;99.90;;;;;;6214120;23;20006;-78
2024/02/16 04:08:39;;;;;;;8.57;4.67;;;4.10;99.90;;;;;;6214597;23;20008;-78
2024/02/16 04:11:04;;;;;;;7.83;5.00;;;4.10;99.90;;;;;;6214149;23;20335;-78
2024/02/16 04:13:32;;;;;;;7.63;4.70;;;4.10;99.90;;;;;;6213975;23;20012;-78
2024/02/16 04:15:58;;;;;;;8.23;5.20;;;4.10;99.90;;;;;;6213495;23;20020;-77
2024/02/16 04:18:23;;;;;;;8.30;5.10;;;4.10;99.90;;;;;;6214527;23;20001;-78
2024/02/16 04:20:49;;;;;;;13.17;5.47;;;4.10;99.90;;;;;;6214605;23;20035;-77
2024/02/16 04:23:14;;;;;;;11.17;5.20;;;4.10;99.90;;;;;;6214735;23;20004;-77
2024/02/16 04:25:40;;;;;;;6.33;4.83;;;4.20;99.90;;;;;;6213919;23;20008;-78
2024/02/16 04:28:05;;;;;;;11.50;5.87;;;4.20;99.90;;;;;;6214744;23;20127;-78
2024/02/16 04:30:31;;;;;;;7.67;4.87;;;4.20;99.90;;;;;;6214514;23;20355;-77
2024/02/16 04:32:56;;;;;;;8.07;5.03;;;4.20;99.90;;;;;;6214273;23;20031;-78
2024/02/16 04:35:22;;;;;;;8.70;4.70;;;4.30;99.90;;;;;;6213964;23;20376;-78
2024/02/16 04:37:48;;;;;;;9.97;5.63;;;4.30;99.90;;;;;;6214193;23;20565;-78
2024/02/16 04:40:14;;;;;;;14.07;5.30;;;4.30;99.90;;;;;;6214095;23;20000;-77
2024/02/16 04:42:42;;;;;;;8.27;5.07;;;4.30;99.90;;;;;;6213639;23;20015;-78
2024/02/16 04:45:11;;;;;;;7.23;4.70;;;4.20;99.90;;;;;;6213499;23;20040;-78
2024/02/16 04:47:37;;;;;;;8.53;4.77;;;4.20;99.90;;;;;;6214052;23;20000;-78
2024/02/16 04:50:03;;;;;;;7.50;4.63;;;4.20;99.90;;;;;;6214150;23;20055;-78
2024/02/16 04:52:28;;;;;;;6.63;4.77;;;4.30;99.90;;;;;;6214313;23;20011;-78
2024/02/16 04:54:54;;;;;;;7.37;4.57;;;4.30;99.90;;;;;;6213315;23;20383;-78
2024/02/16 04:57:20;;;;;;;9.83;4.80;;;4.30;99.90;;;;;;6214146;23;20023;-78
2024/02/16 04:59:46;;;;;;;8.70;4.93;;;4.30;99.90;;;;;;6213648;23;20079;-78
2024/02/16 05:02:11;;;;;;;9.77;4.80;;;4.40;99.90;;;;;;6214260;23;20028;-78
2024/02/16 05:04:37;;;;;;;7.93;4.97;;;4.40;99.90;;;;;;6213019;23;20075;-78
2024/02/16 05:07:04;;;;;;;11.13;5.37;;;4.50;99.90;;;;;;6214079;23;20020;-77
2024/02/16 05:09:32;;;;;;;6.93;4.57;;;4.50;99.90;;;;;;6213639;23;20007;-77
2024/02/16 05:11:58;;;;;;;10.00;4.90;;;4.50;99.90;;;;;;6213532;23;20420;-78
2024/02/16 05:14:23;;;;;;;9.37;5.03;;;4.50;99.90;;;;;;6213436;23;20011;-78
2024/02/16 05:16:50;;;;;;;8.70;4.50;;;4.50;99.90;;;;;;6213223;23;20484;-78
2024/02/16 05:19:16;;;;;;;10.10;4.73;;;4.50;99.90;;;;;;6214330;23;20001;-78
2024/02/16 05:21:42;;;;;;;9.83;4.90;;;4.60;99.90;;;;;;6214012;23;20003;-77
2024/02/16 05:24:07;;;;;;;8.80;5.17;;;4.50;99.90;;;;;;6213215;23;20552;-78
2024/02/16 05:26:34;;;;;;;16.87;5.27;;;4.50;99.90;;;;;;6214124;23;20012;-78
2024/02/16 05:28:59;;;;;;;8.93;4.50;;;4.50;99.90;;;;;;6213640;23;20000;-78
2024/02/16 05:31:25;;;;;;;10.07;5.00;;;4.50;99.90;;;;;;6213890;23;20000;-78
2024/02/16 05:33:51;;;;;;;7.67;4.60;;;4.50;99.90;;;;;;6213639;23;20523;-77
2024/02/16 05:36:24;;;;;;;12.37;5.40;;;4.50;99.90;;;;;;6213772;23;20012;-77
2024/02/16 05:38:51;;;;;;;7.53;4.90;;;4.50;99.90;;;;;;6213736;23;20001;-77
2024/02/16 05:41:19;;;;;;;10.50;5.03;;;4.50;99.90;;;;;;6215129;23;20000;-77
2024/02/16 05:43:46;;;;;;;9.40;5.10;;;4.50;99.90;;;;;;6217225;23;20303;-76
2024/02/16 05:46:15;;;;;;;9.53;5.27;;;4.50;99.90;;;;;;6214577;23;20454;-82
2024/02/16 05:48:41;;;;;;;11.00;4.97;;;4.50;99.90;;;;;;6215032;23;20072;-79
2024/02/16 05:51:07;;;;;;;11.17;5.00;;;4.50;99.90;;;;;;6215063;23;19997;-79
2024/02/16 05:53:33;;;;;;;11.37;4.67;;;4.50;99.90;;;;;;6214210;23;20043;-80
2024/02/16 05:55:59;;;;;;;11.70;5.33;;;4.50;99.90;;;;;;6211825;23;20009;-80
2024/02/16 05:58:25;;;;;;;9.37;4.70;;;4.60;99.90;;;;;;6212389;23;20000;-79
2024/02/16 06:00:51;;;;;;;32.70;6.03;;;4.60;99.90;;;;;;6212268;23;20348;-80
2024/02/16 06:03:16;;;;;;;22.53;5.13;;;4.60;99.90;;;;;;6214554;23;20008;-80
2024/02/16 06:05:45;;;;;;;16.77;5.50;;;4.60;99.90;;;;;;6215257;23;19997;-79
2024/02/16 06:08:11;;;;;;;11.90;4.57;;;4.70;99.90;;;;;;6217401;23;20007;-79
2024/02/16 06:10:37;;;;;;;11.30;5.03;;;4.70;99.90;;;;;;6216986;23;20021;-79
2024/02/16 06:13:02;;;;;;;12.63;5.47;;;4.70;99.90;;;;;;6218397;23;20110;-80
2024/02/16 06:15:28;;;;;;;16.93;5.70;;;4.70;99.90;;;;;;6217113;23;20001;-82
2024/02/16 06:17:54;;;;;;;9.00;4.40;;;4.80;99.90;;;;;;6217176;23;20021;-82
2024/02/16 06:20:19;;;;;;;10.90;4.57;;;4.80;99.90;;;;;;6217263;23;20398;-79
2024/02/16 06:22:45;;;;;;;11.67;4.10;;;4.80;99.90;;;;;;6217832;23;20391;-80
2024/02/16 06:25:10;;;;;;;7.27;4.30;;;4.90;99.90;;;;;;6216735;23;20106;-79
2024/02/16 06:27:36;;;;;;;5.97;3.70;;;4.90;99.90;;;;;;6218044;23;20331;-80
2024/02/16 06:30:07;;;;;;;13.43;4.40;;;5.00;99.90;;;;;;6217603;23;20435;-82
2024/02/16 06:32:33;;;;;;;39.93;5.17;;;5.00;99.90;;;;;;6217598;23;20004;-80
2024/02/16 06:34:58;;;;;;;8.30;3.67;;;5.00;99.90;;;;;;6216677;23;19996;-82
2024/02/16 06:37:24;;;;;;;5.90;3.73;;;5.00;99.90;;;;;;6216502;23;20019;-82
2024/02/16 06:39:50;;;;;;;7.93;3.97;;;5.10;99.90;;;;;;6217679;23;20438;-82
2024/02/16 06:42:15;;;;;;;8.27;3.20;;;5.10;99.90;;;;;;6213872;23;20005;-79
2024/02/16 06:44:41;;;;;;;8.63;3.30;;;5.10;99.90;;;;;;6215338;23;20000;-80
2024/02/16 06:47:06;;;;;;;5.53;3.83;;;5.20;99.90;;;;;;6216777;23;20008;-81
2024/02/16 06:49:32;;;;;;;9.00;3.87;;;5.20;99.90;;;;;;6217524;23;20008;-83
2024/02/16 06:51:58;;;;;;;6.97;3.70;;;5.30;99.90;;;;;;6217575;23;20016;-79
2024/02/16 06:54:26;;;;;;;7.07;3.37;;;5.30;99.90;;;;;;6217007;23;20434;-80
2024/02/16 06:56:52;;;;;;;7.23;3.87;;;5.40;99.90;;;;;;6216564;23;20447;-80
2024/02/16 06:59:18;;;;;;;19.80;4.73;;;5.40;99.90;;;;;;6214024;23;20047;-83
2024/02/16 07:01:43;;;;;;;9.40;3.77;;;5.50;99.90;;;;;;6215430;23;20076;-80
2024/02/16 07:04:09;;;;;;;9.00;3.27;;;5.50;99.90;;;;;;6217631;23;19993;-81
2024/02/16 07:06:35;;;;;;;9.60;3.83;;;5.60;99.90;;;;;;6220249;23;20062;-82
2024/02/16 07:09:02;;;;;;;7.43;3.43;;;5.60;99.90;;;;;;6219116;23;20001;-84
2024/02/16 07:11:27;;;;;;;6.37;3.17;;;5.70;99.90;;;;;;6219532;23;20005;-81
2024/02/16 07:13:53;;;;;;;6.57;3.60;;;5.80;99.90;;;;;;6220502;23;20007;-81
2024/02/16 07:16:19;;;;;;;4.27;3.00;;;5.80;99.90;;;;;;6218663;23;20019;-81
2024/02/16 07:18:45;;;;;;;7.17;3.30;;;5.90;99.90;;;;;;6220093;23;20021;-82
2024/02/16 07:21:11;;;;;;;8.37;3.13;;;6.00;99.90;;;;;;6221141;23;20474;-82
2024/02/16 07:23:38;;;;;;;10.87;3.20;;;6.00;99.90;;;;;;6221005;23;20435;-89
2024/02/16 07:26:04;;;;;;;7.30;3.30;;;6.10;99.90;;;;;;6220585;23;20024;-81
2024/02/16 07:28:29;;;;;;;9.30;3.10;;;6.10;99.90;;;;;;6220537;23;20075;-81
2024/02/16 07:30:55;;;;;;;6.07;3.00;;;6.20;99.90;;;;;;6220220;23;20025;-83
2024/02/16 07:33:21;;;;;;;5.73;2.80;;;6.20;99.90;;;;;;6219874;23;20000;-84
2024/02/16 07:35:47;;;;;;;6.13;2.70;;;6.30;99.90;;;;;;6219593;23;20005;-81
2024/02/16 07:38:12;;;;;;;5.23;2.87;;;6.30;99.90;;;;;;6219581;23;19996;-83
2024/02/16 07:40:38;;;;;;;11.57;3.73;;;6.40;99.90;;;;;;6219285;23;20027;-86
2024/02/16 07:43:04;;;;;;;5.47;3.17;;;6.40;99.90;;;;;;6218808;23;20004;-84
2024/02/16 07:45:30;;;;;;;7.93;3.13;;;6.50;99.90;;;;;;6218372;23;20446;-83
2024/02/16 07:47:56;;;;;;;6.63;3.27;;;6.50;99.90;;;;;;6219674;23;20009;-82
2024/02/16 07:50:22;;;;;;;12.13;3.20;;;6.60;99.90;;;;;;6217659;23;20015;-82
2024/02/16 07:52:51;;;;;;;24.67;4.10;;;6.60;99.90;;;;;;6219146;23;20035;-83
2024/02/16 07:55:18;;;;;;;16.87;3.70;;;6.70;99.90;;;;;;6219790;23;20013;-85
2024/02/16 07:57:44;;;;;;;9.50;3.00;;;6.70;99.90;;;;;;6220803;23;20016;-82
2024/02/16 08:00:11;;;;;;;7.67;2.90;;;6.80;99.90;;;;;;6221157;23;20004;-81
2024/02/16 08:02:36;;;;;;;13.77;4.03;;;6.80;99.90;;;;;;6220898;23;20020;-81
2024/02/16 08:05:02;;;;;;;5.20;2.83;;;6.90;99.90;;;;;;6220489;23;19996;-82
2024/02/16 08:07:28;;;;;;;6.00;3.50;;;6.90;99.90;;;;;;6220217;23;20007;-81
2024/02/16 08:09:53;;;;;;;9.43;3.40;;;7.00;99.90;;;;;;6220560;23;20000;-82
2024/02/16 08:12:19;;;;;;;7.70;3.23;;;7.00;99.90;;;;;;6219461;23;20400;-82
2024/02/16 08:14:47;;;;;;;10.00;4.00;;;7.10;99.90;;;;;;6219859;23;20005;-81
2024/02/16 08:17:13;;;;;;;6.27;3.33;;;7.10;99.90;;;;;;6219848;23;20066;-81
2024/02/16 08:19:38;;;;;;;11.57;4.03;;;7.20;99.90;;;;;;6220141;23;19996;-82
2024/02/16 08:22:07;;;;;;;9.47;3.50;;;7.20;99.90;;;;;;6219663;23;20004;-82
2024/02/16 08:24:34;;;;;;;9.43;3.60;;;7.30;99.90;;;;;;6218071;23;19997;-81
2024/02/16 08:26:59;;;;;;;12.33;3.63;;;7.40;99.90;;;;;;6220682;23;20395;-83
2024/02/16 08:29:25;;;;;;;7.03;3.93;;;7.50;99.90;;;;;;6219191;23;20040;-82
2024/02/16 08:31:51;;;;;;;8.43;4.27;;;7.60;99.90;;;;;;6218789;23;20000;-81
2024/02/16 08:34:17;;;;;;;9.73;3.70;;;7.60;99.90;;;;;;6220161;23;20000;-81
2024/02/16 08:36:47;;;;;;;12.20;5.57;;;7.70;99.90;;;;;;6220489;23;20019;-81
2024/02/16 08:39:13;;;;;;;9.17;4.70;;;7.80;99.90;;;;;;6219689;23;20055;-82
2024/02/16 08:41:39;;;;;;;9.77;4.30;;;7.90;99.90;;;;;;6217181;23;19996;-82
2024/02/16 08:44:09;;;;;;;9.40;4.23;;;8.00;99.90;;;;;;6218533;23;20423;-82
2024/02/16 08:46:35;;;;;;;8.13;4.10;;;8.20;99.90;;;;;;6220041;23;20027;-82
2024/02/16 08:49:00;;;;;;;7.77;3.57;;;8.30;99.90;;;;;;6218460;23;20001;-82
2024/02/16 08:51:26;;;;;;;14.67;3.77;;;8.40;99.90;;;;;;6220636;23;20031;-83
2024/02/16 08:53:51;;;;;;;10.73;3.67;;;8.60;99.90;;;;;;6219438;23;20032;-83
2024/02/16 08:56:17;;;;;;;14.43;4.07;;;8.70;99.90;;;;;;6219415;23;20024;-81
2024/02/16 08:58:42;;;;;;;7.57;3.80;;;8.90;99.90;;;;;;6219594;23;20491;-81
2024/02/16 09:01:08;;;;;;;11.63;3.80;;;9.00;99.90;;;;;;6220181;23;20008;-82
2024/02/16 09:03:38;;;;;;;11.83;3.50;;;9.10;99.90;;;;;;6220582;23;20008;-86
2024/02/16 09:06:04;;;;;;;8.10;3.00;;;9.20;99.90;;;;;;6219234;23;20000;-81
2024/02/16 09:08:34;;;;;;;10.43;3.53;;;9.30;99.90;;;;;;6219690;23;20030;-81
2024/02/16 09:11:00;;;;;;;11.80;3.30;;;9.40;99.90;;;;;;6192853;23;20072;-81
2024/02/16 09:13:25;;;;;;;15.17;4.37;;;9.50;99.90;;;;;;6220117;23;20000;-81
2024/02/16 09:15:53;;;;;;;8.60;2.43;;;9.50;99.90;;;;;;6218016;23;19997;-81
2024/02/16 09:18:19;;;;;;;13.00;3.30;;;9.60;99.90;;;;;;6219825;23;19997;-82
2024/02/16 09:20:44;;;;;;;10.77;2.63;;;9.60;99.90;;;;;;6219760;23;20405;-78
2024/02/16 09:23:10;;;;;;;10.83;3.47;;;9.70;99.90;;;;;;6220704;23;20055;-85
2024/02/16 09:25:36;;;;;;;10.03;3.50;;;9.80;99.90;;;;;;6219570;23;20051;-83
2024/02/16 09:28:02;;;;;;;11.03;4.30;;;9.90;99.90;;;;;;6219703;23;20032;-82
2024/02/16 09:30:27;;;;;;;7.40;3.30;;;10.10;99.90;;;;;;6220103;23;20004;-82
2024/02/16 09:32:53;;;;;;;6.23;2.77;;;10.10;99.90;;;;;;6219474;23;20330;-82
2024/02/16 09:35:19;;;;;;;5.07;2.10;;;10.20;99.90;;;;;;6218985;23;20005;-83
2024/02/16 09:37:45;;;;;;;5.37;2.47;;;10.30;99.90;;;;;;6220122;23;20013;-84
2024/02/16 09:40:12;;;;;;;6.67;2.10;;;10.40;99.90;;;;;;6220413;23;20392;-82
2024/02/16 09:42:39;;;;;;;7.77;2.37;;;10.50;99.90;;;;;;6218792;23;20370;-83
2024/02/16 09:45:07;;;;;;;6.43;1.98;;;10.70;99.90;;;;;;6218334;23;20000;-83
2024/02/16 09:47:34;;;;;;;10.55;2.97;;;10.80;99.90;;;;;;6218834;23;20075;-85
2024/02/16 09:50:00;;;;;;;4.53;2.33;;;11.00;99.90;;;;;;6219645;23;20032;-82
2024/02/16 09:52:26;;;;;;;3.50;2.03;;;11.20;99.90;;;;;;6219554;23;20009;-82
2024/02/16 09:54:52;;;;;;;8.82;2.22;;;11.30;99.90;;;;;;6218390;23;20420;-82
2024/02/16 09:57:18;;;;;;;5.43;2.28;;;11.50;99.90;;;;;;6219720;23;20075;-82
2024/02/16 09:59:44;;;;;;;7.90;2.20;;;11.70;99.90;;;;;;6219821;23;20016;-82
2024/02/16 10:02:10;;;;;;;9.07;2.10;;;11.90;99.90;;;;;;6218838;23;20448;-82
2024/02/16 10:04:36;;;;;;;4.40;1.88;;;12.10;99.90;;;;;;6218682;23;20000;-82
2024/02/16 10:07:01;;;;;;;4.82;2.10;;;12.40;99.90;;;;;;6219165;23;20000;-82
2024/02/16 10:09:29;;;;;;;5.10;2.13;;;12.50;99.90;;;;;;6219437;23;20064;-85
2024/02/16 10:11:54;;;;;;;4.03;2.10;;;12.70;99.90;;;;;;6219380;23;20092;-82
2024/02/16 10:14:20;;;;;;;6.15;2.22;;;12.90;99.90;;;;;;6219356;23;19997;-82
2024/02/16 10:16:48;;;;;;;2.95;1.83;;;13.10;99.90;;;;;;6218940;23;20525;-82
2024/02/16 10:19:17;;;;;;;7.35;1.70;;;13.20;99.90;;;;;;6219697;23;19996;-84
2024/02/16 10:21:43;;;;;;;5.47;1.90;;;13.40;99.90;;;;;;6218513;23;20008;-81
2024/02/16 10:24:14;;;;;;;4.95;1.60;;;13.60;99.90;;;;;;6218844;23;20009;-81
2024/02/16 10:26:40;;;;;;;6.80;2.08;;;13.70;99.90;;;;;;6219418;23;20013;-84
2024/02/16 10:29:08;;;;;;;3.83;1.58;;;13.80;99.90;;;;;;6219676;23;20079;-84
2024/02/16 10:31:34;;;;;;;3.47;1.65;;;13.90;99.90;;;;;;6218779;23;20335;-82
2024/02/16 10:34:05;;;;;;;4.40;1.70;;;13.90;99.90;;;;;;6218599;23;20048;-82
2024/02/16 10:36:32;;;;;;;4.10;1.70;;;14.10;99.90;;;;;;6219434;23;20008;-81
2024/02/16 10:38:59;;;;;;;4.10;2.00;;;14.20;99.90;;;;;;6219122;23;20421;-84
2024/02/16 10:41:30;;;;;;;4.25;1.58;;;14.30;99.90;;;;;;6218852;23;20080;-82
2024/02/16 10:43:56;;;;;;;2.67;1.70;;;14.40;99.90;;;;;;6218977;23;20494;-86
2024/02/16 10:46:24;;;;;;;3.40;1.60;;;14.60;99.90;;;;;;6219672;23;20025;-86
2024/02/16 10:48:50;;;;;;;4.75;1.70;;;14.70;99.90;;;;;;6219252;23;20020;-85
2024/02/16 10:51:19;;;;;;;3.88;1.73;;;14.90;99.90;;;;;;6219331;23;20007;-82
2024/02/16 10:53:45;;;;;;;;;;;15.10;99.90;;;;;;6220212;23;20382;-82
2024/02/16 10:56:10;;;;;;;;;;;15.20;99.90;;;;;;6221368;23;20127;-82
2024/02/16 10:58:37;;;;;;;;;;;15.30;99.90;;;;;;6221534;23;20443;-84
2024/02/16 11:01:15;;;;;;;;;;;15.40;99.90;;;;;;6221109;23;20000;-82
2024/02/16 11:03:40;;;;;;;;;;;15.60;99.90;;;;;;6220405;23;20031;-82
2024/02/16 11:06:16;;;;;;;;;;;15.70;99.90;;;;;;6220547;23;20012;-85
2024/02/16 11:08:42;;;;;;;;;;;15.60;99.90;;;;;;6220803;23;20012;-86
2024/02/16 11:11:11;;;;;;;;;;;15.70;99.90;;;;;;6220346;23;20095;-82
2024/02/16 11:13:37;;;;;;;;;;;15.80;99.90;;;;;;6220866;23;20042;-85
2024/02/16 11:16:06;;;;;;;;;;;15.80;99.90;;;;;;6218979;23;20515;-82
2024/02/16 11:18:32;;;;;;;;;;;16.00;99.90;;;;;;6220640;23;20020;-81
2024/02/16 11:21:02;;;;;;;;;;;16.10;99.90;;;;;;6220079;23;20017;-85
2024/02/16 11:23:29;;;;;;;;;;;16.20;99.90;;;;;;6220393;23;20016;-82
2024/02/16 11:25:54;;;;;;;;;;;16.30;99.90;;;;;;6219779;23;19935;-82
2024/02/16 11:28:20;;;;;;;;;;;16.40;99.90;;;;;;6220061;23;20063;-82
2024/02/16 11:30:45;;;;;;;;;;;16.50;99.90;;;;;;6219492;23;19930;-83
2024/02/16 11:33:11;;;;;;;;;;;16.60;99.90;;;;;;6213497;23;20014;-76
2024/02/16 11:35:36;;;;;;;;;;;16.60;99.90;;;;;;6205669;23;20009;-76
2024/02/16 11:38:02;;;;;;;;;;;16.70;99.90;;;;;;6212955;23;20012;-76
2024/02/16 11:40:27;;;;;;;;;;;16.80;99.90;;;;;;6213567;23;20011;-76
2024/02/16 11:42:59;;;;;;;;;;;16.80;99.90;;;;;;6213670;23;20016;-76
2024/02/16 11:45:26;;;;;;;;;;;16.90;99.90;;;;;;6212630;23;20004;-76
2024/02/16 11:47:51;;;;;;;;;;;17.00;99.90;;;;;;6213086;23;20004;-75
2024/02/16 11:50:18;;;;;;;;;;;17.00;99.90;;;;;;6213499;23;20011;-76
2024/02/16 11:52:43;;;;;;;;;;;16.90;99.90;;;;;;6214099;23;20092;-77
2024/02/16 11:55:09;;;;;;;;;;;17.00;99.90;;;;;;6213539;23;20050;-76
2024/02/16 11:57:35;;;;;;;;;;;17.00;99.90;;;;;;6214300;23;20047;-76
2024/02/16 12:00:07;;;;;;;;;;;17.00;99.90;;;;;;6214385;23;20019;-76
2024/02/16 12:02:32;;;;;;;;;;;17.00;99.90;;;;;;6213360;23;20011;-76
2024/02/16 12:04:58;;;;;;;;;;;17.10;99.90;;;;;;6214504;23;20338;-78
2024/02/16 12:07:25;;;;;;;;;;;17.00;99.90;;;;;;6215999;23;20004;-73
2024/02/16 12:09:56;;;;;;;;;;;16.90;99.90;;;;;;6213673;23;20643;-81
2024/02/16 12:12:21;;;;;;;;;;;16.90;99.90;;;;;;6217995;23;20068;-81
2024/02/16 12:14:47;;;;;;;;;;;16.80;99.90;;;;;;6217233;23;20004;-81
2024/02/16 12:17:14;;;;;;;;;;;16.70;99.90;;;;;;6217200;23;20015;-81
2024/02/16 12:19:44;;;;;;;;;;;16.70;99.90;;;;;;6218270;23;20004;-81
2024/02/16 12:22:09;;;;;;;;;;;16.90;99.90;;;;;;6219242;23;20010;-81
2024/02/16 12:24:34;;;;;;;;;;;17.00;99.90;;;;;;6218309;23;20486;-81
2024/02/16 12:27:00;;;;;;;;;;;17.20;99.90;;;;;;6218259;23;20362;-81
2024/02/16 12:29:25;;;;;;;;;;;17.50;99.90;;;;;;6218305;23;20026;-81
2024/02/16 12:31:51;;;;;;;;;;;17.70;99.90;;;;;;6218093;23;20466;-72
2024/02/16 12:34:16;;;;;;;;;;;17.70;99.90;;;;;;6213388;23;20349;-73
2024/02/16 12:36:42;;;;;;;;;;;17.80;99.90;;;;;;6213578;23;20055;-73
2024/02/16 12:39:09;;;;;;;;;;;17.90;99.90;;;;;;6214305;23;20015;-73
2024/02/16 12:41:35;;;;;;;;;;;18.00;99.90;;;;;;6213687;23;20016;-73
2024/02/16 12:44:01;;;;;;;;;;;18.00;99.90;;;;;;6213370;23;20019;-73
2024/02/16 12:46:28;;;;;;;;;;;18.10;99.90;;;;;;6213774;23;20011;-74
2024/02/16 12:48:53;;;;;;;;;;;18.10;99.90;;;;;;6213702;23;20017;-73
2024/02/16 12:51:19;;;;;;;;;;;18.00;99.90;;;;;;6213832;23;20004;-73
2024/02/16 12:53:44;;;;;;;;;;;17.90;99.90;;;;;;6213237;23;19996;-74
2024/02/16 12:56:10;;;;;;;;;;;17.90;99.90;;;;;;6213395;23;20016;-73
2024/02/16 12:58:36;;;;;;;;;;;17.90;99.90;;;;;;6213545;23;20326;-73